createdAt,value
2019-05-19T05:11:46.131Z,1000.68
2019-05-19T05:21:43.593Z,1000.62
2019-05-19T05:31:43.568Z,1000.59
2019-05-19T05:41:43.544Z,1000.55
2019-05-19T05:51:43.601Z,1000.61
2019-05-19T06:01:43.277Z,1000.59
2019-05-19T06:11:43.554Z,1000.52
2019-05-19T06:21:43.224Z,1000.47
2019-05-19T06:31:44.406Z,1000.44
2019-05-19T06:41:43.347Z,1000.42
2019-05-19T06:51:43.965Z,1000.37
2019-05-19T07:01:43.775Z,1000.33
2019-05-19T07:11:43.470Z,1000.34
2019-05-19T07:21:43.532Z,1000.26
2019-05-19T07:31:43.956Z,1000.22
2019-05-19T07:41:43.665Z,1000.20
2019-05-19T07:51:43.440Z,1000.08
2019-05-19T08:01:45.980Z,1000.06
2019-05-19T08:11:45.937Z,999.98
2019-05-19T08:21:45.286Z,999.75
2019-05-19T08:31:43.511Z,999.92
2019-05-19T08:41:43.594Z,999.86
2019-05-19T08:51:43.563Z,999.83
2019-05-19T09:01:43.424Z,999.74
2019-05-19T09:11:47.941Z,999.69
2019-05-19T09:21:44.134Z,999.62
2019-05-19T09:31:46.091Z,999.55
2019-05-19T09:41:43.493Z,999.45
2019-05-19T09:51:43.585Z,999.34
2019-05-19T10:01:46.136Z,999.30
2019-05-19T10:11:45.457Z,999.18
2019-05-19T10:21:43.877Z,999.30
2019-05-19T10:31:45.661Z,999.15
2019-05-19T10:41:46.184Z,999.31
2019-05-19T10:51:43.599Z,999.19
2019-05-19T11:01:43.783Z,999.02
2019-05-19T11:11:44.041Z,999.01
2019-05-19T11:21:44.216Z,998.86
2019-05-19T11:31:43.566Z,998.89
2019-05-19T11:41:43.547Z,998.71
2019-05-19T11:51:44.232Z,998.73
2019-05-19T12:01:43.781Z,998.62
2019-05-19T12:11:43.573Z,998.64
2019-05-19T12:21:46.383Z,998.67
2019-05-19T12:31:43.813Z,998.49
2019-05-19T12:41:43.680Z,998.43
2019-05-19T12:51:43.631Z,998.32
2019-05-19T13:01:43.702Z,998.27
2019-05-19T13:11:45.919Z,998.17
2019-05-19T13:21:43.661Z,998.13
2019-05-19T13:31:45.361Z,998.05
2019-05-19T13:41:46.254Z,998.04
2019-05-19T13:51:43.823Z,998.04
2019-05-19T14:01:43.622Z,997.98
2019-05-19T14:11:44.007Z,997.91
2019-05-19T14:21:43.887Z,997.90
2019-05-19T14:31:43.846Z,997.91
2019-05-19T14:41:43.819Z,998.03
2019-05-19T14:51:43.583Z,998.03
2019-05-19T15:01:43.855Z,998.11
2019-05-19T15:11:43.903Z,998.04
2019-05-19T15:21:45.736Z,998.18
2019-05-19T15:31:43.549Z,997.96
2019-05-19T15:41:43.887Z,997.88
2019-05-19T15:51:59.437Z,997.76
2019-05-19T16:01:43.979Z,997.64
2019-05-19T16:11:43.715Z,997.59
